createdAt,value
2024-04-11T00:02:10.733Z,10.43
2024-04-11T00:04:38.179Z,9.57
2024-04-11T00:07:05.499Z,12.15
2024-04-11T00:09:32.605Z,13.38
2024-04-11T00:11:59.826Z,10.40
2024-04-11T00:14:27.163Z,8.68
2024-04-11T00:16:54.405Z,9.85
2024-04-11T00:19:21.679Z,8.75
2024-04-11T00:21:50.696Z,19.00
2024-04-11T00:24:20.749Z,10.02
2024-04-11T00:26:48.710Z,13.65
2024-04-11T00:29:15.929Z,10.40
2024-04-11T00:31:43.072Z,10.40
2024-04-11T00:34:25.236Z,10.30
2024-04-11T00:36:54.639Z,8.55
2024-04-11T00:39:22.016Z,9.50
2024-04-11T00:41:50.444Z,11.27
2024-04-11T00:44:19.378Z,7.88
2024-04-11T00:46:55.887Z,11.10
2024-04-11T00:49:24.100Z,9.75
2024-04-11T00:51:51.838Z,11.05
2024-04-11T00:54:19.390Z,10.45
2024-04-11T00:56:46.936Z,7.28
2024-04-11T00:59:16.143Z,8.80
2024-04-11T01:01:45.515Z,9.75
2024-04-11T01:04:12.894Z,8.68
2024-04-11T01:07:07.521Z,9.60
2024-04-11T01:09:37.105Z,7.78
2024-04-11T01:12:05.127Z,6.32
2024-04-11T01:14:32.940Z,12.90
2024-04-11T01:17:00.496Z,13.00
2024-04-11T01:19:28.256Z,11.85
2024-04-11T01:21:57.059Z,9.60
2024-04-11T01:24:24.134Z,9.48
2024-04-11T01:26:51.474Z,12.82
2024-04-11T01:29:18.726Z,11.82
2024-04-11T01:31:46.298Z,10.93
2024-04-11T01:34:13.692Z,13.57
2024-04-11T01:36:40.945Z,7.68
2024-04-11T01:39:10.780Z,9.48
2024-04-11T01:41:40.845Z,11.15
2024-04-11T01:44:08.119Z,8.68
2024-04-11T01:46:35.213Z,9.90
2024-04-11T01:49:02.597Z,9.32
2024-04-11T01:51:29.838Z,9.57
2024-04-11T01:53:57.390Z,10.85
2024-04-11T01:56:27.441Z,10.75
2024-04-11T01:58:54.895Z,11.20
2024-04-11T02:01:22.074Z,10.60
2024-04-11T02:03:49.978Z,9.82
2024-04-11T02:06:17.155Z,11.20
2024-04-11T02:08:44.368Z,10.07
2024-04-11T02:11:13.185Z,10.40
2024-04-11T02:13:40.414Z,11.55
2024-04-11T02:16:08.086Z,14.57
2024-04-11T02:18:35.437Z,7.60
2024-04-11T02:21:02.666Z,7.30
2024-04-11T02:23:31.650Z,7.70
2024-04-11T02:25:58.836Z,6.93
2024-04-11T02:28:25.913Z,8.90
2024-04-11T02:30:55.414Z,13.77
2024-04-11T02:33:31.448Z,7.65
2024-04-11T02:35:59.021Z,14.93
2024-04-11T02:38:29.026Z,16.90
2024-04-11T02:40:56.379Z,11.93
2024-04-11T02:43:24.162Z,14.00
2024-04-11T02:45:51.683Z,10.40
2024-04-11T02:48:22.544Z,16.15
2024-04-11T02:50:51.034Z,11.50
2024-04-11T02:53:18.810Z,11.93
2024-04-11T02:55:45.945Z,13.68
2024-04-11T02:58:13.019Z,9.82
2024-04-11T03:00:40.161Z,13.05
2024-04-11T03:03:09.206Z,12.77
2024-04-11T03:05:37.767Z,12.90
2024-04-11T03:08:08.070Z,14.23
2024-04-11T03:10:35.370Z,12.07
2024-04-11T03:13:02.582Z,10.48
2024-04-11T03:15:32.247Z,11.43
2024-04-11T03:17:59.836Z,16.00
2024-04-11T03:20:27.076Z,15.48
2024-04-11T03:22:54.246Z,15.63
2024-04-11T03:25:21.474Z,10.55
2024-04-11T03:27:48.609Z,7.25
2024-04-11T03:30:15.827Z,10.32
2024-04-11T03:32:43.106Z,12.38
2024-04-11T03:35:10.922Z,14.05
2024-04-11T03:37:38.110Z,11.20
2024-04-11T03:40:05.599Z,11.85
2024-04-11T03:42:33.040Z,11.18
2024-04-11T03:45:12.681Z,14.93
2024-04-11T03:47:40.225Z,13.65
2024-04-11T03:50:07.623Z,18.00
2024-04-11T03:52:34.782Z,16.77
2024-04-11T03:55:02.973Z,16.67
2024-04-11T03:57:30.045Z,14.05
2024-04-11T03:59:57.706Z,18.40
2024-04-11T04:02:24.975Z,15.13
2024-04-11T04:04:52.262Z,13.57
2024-04-11T04:07:19.420Z,13.70
2024-04-11T04:09:46.536Z,11.48
2024-04-11T04:12:13.764Z,15.43
2024-04-11T04:14:41.037Z,18.23
2024-04-11T04:17:08.190Z,15.25
2024-04-11T04:19:35.398Z,14.50
2024-04-11T04:22:02.566Z,13.63
2024-04-11T04:24:29.621Z,13.60
2024-04-11T04:26:58.475Z,12.50
2024-04-11T04:29:27.513Z,10.88
2024-04-11T04:31:54.592Z,13.90
2024-04-11T04:34:22.629Z,21.42
2024-04-11T04:36:51.189Z,22.08
2024-04-11T04:39:18.485Z,18.30
2024-04-11T04:41:46.628Z,18.15
2024-04-11T04:44:14.069Z,13.98
2024-04-11T04:46:41.128Z,14.50
2024-04-11T04:49:12.404Z,10.15
2024-04-11T04:51:40.997Z,15.68
2024-04-11T04:54:13.843Z,11.82
2024-04-11T04:56:44.111Z,20.38
2024-04-11T04:59:12.038Z,15.75
2024-04-11T05:01:42.721Z,13.43
2024-04-11T05:04:16.670Z,14.93
2024-04-11T05:06:45.281Z,14.35
2024-04-11T05:09:12.502Z,13.93
2024-04-11T05:11:40.924Z,14.52
2024-04-11T05:14:10.899Z,14.68
2024-04-11T05:16:38.623Z,17.15
2024-04-11T05:19:06.126Z,19.60
2024-04-11T05:21:34.963Z,13.88
2024-04-11T05:24:03.178Z,11.85
2024-04-11T05:26:32.005Z,10.13
2024-04-11T05:28:59.858Z,14.25
2024-04-11T05:31:27.934Z,12.32
2024-04-11T05:33:57.539Z,16.00
2024-04-11T05:36:30.901Z,15.57
2024-04-11T05:38:59.094Z,12.20
2024-04-11T05:41:27.578Z,13.98
2024-04-11T05:44:00.145Z,12.10
2024-04-11T05:46:27.363Z,12.30
2024-04-11T05:48:55.225Z,16.67
2024-04-11T05:51:23.611Z,13.95
2024-04-11T05:53:51.587Z,12.98
2024-04-11T05:56:22.087Z,14.60
2024-04-11T05:58:52.174Z,16.67
2024-04-11T06:01:19.565Z,19.42
2024-04-11T06:03:48.613Z,16.55
2024-04-11T06:06:17.009Z,14.05
2024-04-11T06:08:45.293Z,21.63
2024-04-11T06:11:13.102Z,15.85
2024-04-11T06:13:40.833Z,16.65
2024-04-11T06:16:08.479Z,16.83
2024-04-11T06:18:38.604Z,11.77
2024-04-11T06:21:11.586Z,12.13
2024-04-11T06:23:39.126Z,15.50
2024-04-11T06:26:18.987Z,15.40
2024-04-11T06:28:48.999Z,15.32
2024-04-11T06:31:16.936Z,12.63
2024-04-11T06:33:44.823Z,12.15
2024-04-11T06:36:13.185Z,13.85
2024-04-11T06:38:41.559Z,9.75
2024-04-11T06:41:10.750Z,13.70
2024-04-11T06:43:43.084Z,14.68
2024-04-11T06:46:12.473Z,14.80
2024-04-11T06:48:41.392Z,12.73
2024-04-11T06:51:11.157Z,14.45
2024-04-11T06:53:40.921Z,12.00
2024-04-11T06:56:10.093Z,11.57
2024-04-11T06:58:38.827Z,11.98
2024-04-11T07:01:10.851Z,8.05
2024-04-11T07:03:42.767Z,10.88
2024-04-11T07:06:12.059Z,9.43
2024-04-11T07:08:44.689Z,15.48
2024-04-11T07:11:21.834Z,11.05
2024-04-11T07:13:51.442Z,8.05
2024-04-11T07:16:21.968Z,10.85
2024-04-11T07:18:56.676Z,5.93
2024-04-11T07:21:32.217Z,9.18
2024-04-11T07:24:00.420Z,5.90
2024-04-11T07:26:31.912Z,8.70
2024-04-11T07:29:01.505Z,9.32
2024-04-11T07:31:29.917Z,15.43
2024-04-11T07:34:03.039Z,8.45
2024-04-11T07:36:40.434Z,10.00
2024-04-11T07:39:10.618Z,11.57
2024-04-11T07:41:48.012Z,7.87
2024-04-11T07:44:25.433Z,7.53
2024-04-11T07:47:06.106Z,10.68
2024-04-11T07:49:48.556Z,6.40
2024-04-11T07:52:15.991Z,8.98
2024-04-11T07:54:47.904Z,8.43
2024-04-11T07:57:21.564Z,9.45
2024-04-11T07:59:48.953Z,5.00
2024-04-11T08:02:16.747Z,5.80
2024-04-11T08:04:44.027Z,5.55
2024-04-11T08:07:11.273Z,7.65
2024-04-11T08:09:47.648Z,7.90
2024-04-11T08:12:16.418Z,6.43
2024-04-11T08:14:44.136Z,6.80
2024-04-11T08:17:16.207Z,8.43
2024-04-11T08:19:52.046Z,8.20
2024-04-11T08:22:25.955Z,6.95
2024-04-11T08:24:53.289Z,8.02
2024-04-11T08:27:21.869Z,9.35
2024-04-11T08:29:49.472Z,7.95
2024-04-11T08:32:16.722Z,5.15
2024-04-11T08:34:43.961Z,5.30
2024-04-11T08:37:12.994Z,5.85
2024-04-11T08:39:40.161Z,8.35
2024-04-11T08:42:10.594Z,10.60
2024-04-11T08:44:38.516Z,6.57
2024-04-11T08:47:07.830Z,4.53
2024-04-11T08:49:35.483Z,8.48
2024-04-11T08:52:06.958Z,8.02
2024-04-11T08:54:37.957Z,5.70
2024-04-11T08:59:32.681Z,3.97
2024-04-11T09:01:59.961Z,6.47
2024-04-11T09:04:27.263Z,5.85
2024-04-11T09:06:55.912Z,7.10
2024-04-11T09:09:25.038Z,3.95
2024-04-11T09:11:53.820Z,7.45
2024-04-11T09:14:22.400Z,8.57
2024-04-11T09:17:02.792Z,6.85
2024-04-11T09:19:33.842Z,5.05
2024-04-11T09:22:01.331Z,6.45
2024-04-11T09:24:30.744Z,5.10
2024-04-11T09:27:01.113Z,9.63
2024-04-11T09:29:28.485Z,5.63
2024-04-11T09:32:01.156Z,6.50
2024-04-11T09:34:32.369Z,10.48
2024-04-11T09:37:01.132Z,5.75
2024-04-11T09:39:48.787Z,8.07
2024-04-11T09:42:20.724Z,7.25
2024-04-11T09:44:55.260Z,6.43
2024-04-11T09:47:33.555Z,6.25
2024-04-11T09:50:07.236Z,6.70
2024-04-11T09:52:43.053Z,8.68
2024-04-11T09:55:10.820Z,6.90
2024-04-11T09:57:40.085Z,7.20
2024-04-11T10:00:20.019Z,8.20
2024-04-11T10:02:54.881Z,5.53
2024-04-11T10:05:24.937Z,11.98
2024-04-11T10:07:59.863Z,15.05
2024-04-11T10:10:35.435Z,12.88
2024-04-11T10:13:05.653Z,7.35
2024-04-11T10:15:39.156Z,8.13
2024-04-11T10:18:13.036Z,8.60
2024-04-11T10:21:01.195Z,8.18
2024-04-11T10:23:30.850Z,7.93
2024-04-11T10:25:58.194Z,3.50
2024-04-11T10:28:40.777Z,7.78
2024-04-11T10:31:13.015Z,12.70
2024-04-11T10:33:55.186Z,8.02
2024-04-11T10:36:23.228Z,9.05
2024-04-11T10:38:59.578Z,8.68
2024-04-11T10:41:28.104Z,6.25
2024-04-11T10:43:57.298Z,6.40
2024-04-11T10:46:25.614Z,12.63
2024-04-11T10:48:57.767Z,9.88
2024-04-11T10:51:29.501Z,5.57
2024-04-11T10:54:12.535Z,8.95
2024-04-11T10:56:45.300Z,10.10
2024-04-11T10:59:28.671Z,6.10
2024-04-11T11:02:10.478Z,6.78
2024-04-11T11:04:45.299Z,7.30
2024-04-11T11:07:12.969Z,6.35
2024-04-11T11:09:47.811Z,11.95
2024-04-11T11:12:17.833Z,10.73
2024-04-11T11:14:45.466Z,8.57
2024-04-11T11:17:19.511Z,8.63
2024-04-11T11:19:52.370Z,8.38
2024-04-11T11:22:35.738Z,8.05
2024-04-11T11:25:04.587Z,10.43
2024-04-11T11:27:34.970Z,5.80
2024-04-11T11:30:08.116Z,7.68
2024-04-11T11:32:38.694Z,10.13
2024-04-11T11:35:07.287Z,11.17
2024-04-11T11:37:34.586Z,6.90
2024-04-11T11:40:20.498Z,5.57
2024-04-11T11:42:49.301Z,8.73
2024-04-11T11:45:29.025Z,9.07
2024-04-11T11:47:59.579Z,8.52
2024-04-11T11:50:37.608Z,9.95
2024-04-11T11:53:25.546Z,6.60
2024-04-11T11:58:32.129Z,10.15
2024-04-11T12:01:03.747Z,17.70
2024-04-11T12:03:35.225Z,11.43
2024-04-11T12:06:06.889Z,10.25
2024-04-11T12:08:39.853Z,5.57
2024-04-11T12:11:07.521Z,10.27
2024-04-11T12:13:47.103Z,7.65
2024-04-11T12:16:18.185Z,3.10
2024-04-11T12:18:49.708Z,5.20
2024-04-11T12:21:28.391Z,8.52
2024-04-11T12:23:58.353Z,9.60
2024-04-11T12:26:28.516Z,8.25
2024-04-11T12:28:58.031Z,7.93
2024-04-11T12:31:28.498Z,3.53
2024-04-11T12:33:58.554Z,6.43
2024-04-11T12:36:44.221Z,4.40
2024-04-11T12:39:15.008Z,6.38
2024-04-11T12:41:43.631Z,9.43
2024-04-11T12:44:14.033Z,7.03
2024-04-11T12:46:54.908Z,6.80
2024-04-11T12:49:28.394Z,6.65
2024-04-11T12:51:57.348Z,7.63
2024-04-11T12:54:32.971Z,5.32
2024-04-11T12:57:07.566Z,13.07
2024-04-11T12:59:37.740Z,6.47
2024-04-11T13:02:10.931Z,9.40
2024-04-11T13:04:39.865Z,9.02
2024-04-11T13:07:14.323Z,10.55
2024-04-11T13:10:09.959Z,11.73
2024-04-11T13:12:37.921Z,8.13
2024-04-11T13:15:13.216Z,11.27
2024-04-11T13:17:43.850Z,12.88
2024-04-11T13:20:16.026Z,9.45
2024-04-11T13:22:50.689Z,5.45
2024-04-11T13:25:22.842Z,11.38
2024-04-11T13:27:54.816Z,12.52
2024-04-11T13:30:22.965Z,15.05
2024-04-11T13:33:01.572Z,19.48
2024-04-11T13:35:51.112Z,15.25
2024-04-11T13:38:22.716Z,8.98
2024-04-11T13:41:10.484Z,11.93
2024-04-11T13:43:44.101Z,8.52
2024-04-11T13:46:12.411Z,10.13
2024-04-11T13:48:51.749Z,13.88
2024-04-11T13:51:26.354Z,11.40
2024-04-11T13:53:58.995Z,11.02
2024-04-11T13:56:40.463Z,10.18
2024-04-11T13:59:10.771Z,12.85
2024-04-11T14:01:45.005Z,8.23
2024-04-11T14:04:32.470Z,9.45
2024-04-11T14:07:05.048Z,12.52
2024-04-11T14:09:37.794Z,10.80
2024-04-11T14:12:05.429Z,15.43
2024-04-11T14:14:36.333Z,13.43
2024-04-11T14:17:14.994Z,10.30
2024-04-11T14:19:53.985Z,19.95
2024-04-11T14:22:21.807Z,15.25
2024-04-11T14:25:10.464Z,26.60
2024-04-11T14:27:40.424Z,13.27
2024-04-11T14:30:08.465Z,26.67
2024-04-11T14:33:05.089Z,14.52
2024-04-11T14:35:50.697Z,12.13
2024-04-11T14:38:21.097Z,14.57
2024-04-11T14:40:48.355Z,10.77
2024-04-11T14:43:22.503Z,19.85
2024-04-11T14:45:49.871Z,12.20
2024-04-11T14:48:21.089Z,7.65
2024-04-11T14:50:57.626Z,6.40
2024-04-11T14:53:26.304Z,13.07
2024-04-11T14:55:57.952Z,8.18
2024-04-11T14:58:32.568Z,6.50
2024-04-11T15:01:16.359Z,9.95
2024-04-11T15:03:47.096Z,19.67
2024-04-11T15:06:17.763Z,20.95
2024-04-11T15:08:50.145Z,12.95
2024-04-11T15:11:24.769Z,11.93
2024-04-11T15:13:55.128Z,16.90
2024-04-11T15:16:40.686Z,15.30
2024-04-11T15:19:10.072Z,14.98
2024-04-11T15:21:37.676Z,19.13
2024-04-11T15:24:14.890Z,12.45
2024-04-11T15:26:56.001Z,11.02
2024-04-11T15:32:24.393Z,27.73
2024-04-11T15:34:54.992Z,19.95
2024-04-11T15:37:31.401Z,16.93
2024-04-11T15:40:03.003Z,22.13
2024-04-11T15:42:36.156Z,14.95
2024-04-11T15:45:07.082Z,24.10
2024-04-11T15:47:35.012Z,23.95
2024-04-11T15:50:07.435Z,15.80
2024-04-11T15:52:38.323Z,15.07
2024-04-11T15:55:14.588Z,13.98
2024-04-11T15:57:41.907Z,12.48
2024-04-11T16:00:13.513Z,12.90
2024-04-11T16:02:45.592Z,19.00
2024-04-11T16:05:36.093Z,11.50
2024-04-11T16:08:12.214Z,11.03
2024-04-11T16:10:48.550Z,17.70
2024-04-11T16:13:15.858Z,15.27
2024-04-11T16:15:45.528Z,10.73
2024-04-11T16:18:18.507Z,16.85
2024-04-11T16:20:48.899Z,14.35
2024-04-11T16:23:17.950Z,12.50
2024-04-11T16:25:45.517Z,13.63
2024-04-11T16:28:17.289Z,12.50
2024-04-11T16:31:05.124Z,15.23
2024-04-11T16:33:35.675Z,8.80
2024-04-11T16:36:05.309Z,14.23
2024-04-11T16:39:03.563Z,13.90
2024-04-11T16:41:41.301Z,11.25
2024-04-11T16:44:12.762Z,14.35
2024-04-11T16:46:53.087Z,12.40
2024-04-11T16:49:37.022Z,19.88
2024-04-11T16:52:09.625Z,20.20
2024-04-11T16:54:47.204Z,9.38
2024-04-11T16:57:15.057Z,8.75
2024-04-11T16:59:43.384Z,7.80
2024-04-11T17:02:13.561Z,5.97
2024-04-11T17:04:51.418Z,10.17
2024-04-11T17:07:26.494Z,4.63
2024-04-11T17:09:59.388Z,7.80
2024-04-11T17:12:33.410Z,6.25
2024-04-11T17:15:01.728Z,10.82
2024-04-11T17:17:38.192Z,9.57
2024-04-11T17:20:21.423Z,18.13
2024-04-11T17:23:10.613Z,14.13
2024-04-11T17:25:40.709Z,18.20
2024-04-11T17:28:18.434Z,33.92
2024-04-11T17:30:57.666Z,27.27
2024-04-11T17:33:35.191Z,14.25
2024-04-11T17:36:24.228Z,11.68
2024-04-11T17:39:05.298Z,12.45
2024-04-11T17:41:40.491Z,10.75
2024-04-11T17:44:17.145Z,14.82
2024-04-11T17:47:04.162Z,10.68
2024-04-11T17:49:41.178Z,14.00
2024-04-11T17:52:25.646Z,18.60
2024-04-11T17:54:53.115Z,32.42
2024-04-11T17:57:21.748Z,43.80
2024-04-11T17:59:49.877Z,15.32
2024-04-11T18:02:23.040Z,10.23
2024-04-11T18:04:53.225Z,20.05
2024-04-11T18:07:26.570Z,10.00
2024-04-11T18:09:55.210Z,17.15
2024-04-11T18:12:23.469Z,5.65
2024-04-11T18:14:51.000Z,7.80
2024-04-11T18:17:23.701Z,3.83
2024-04-11T18:19:57.901Z,6.78
2024-04-11T18:22:25.179Z,7.35
2024-04-11T18:24:59.849Z,15.80
2024-04-11T18:27:27.138Z,9.32
2024-04-11T18:29:59.096Z,9.23
2024-04-11T18:32:32.737Z,8.20
2024-04-11T18:35:03.544Z,6.28
2024-04-11T18:37:33.438Z,4.65
2024-04-11T18:40:20.500Z,11.50
2024-04-11T18:42:48.377Z,8.27
2024-04-11T18:45:25.689Z,13.45
2024-04-11T18:47:58.527Z,6.75
2024-04-11T18:50:27.315Z,11.55
2024-04-11T18:53:04.506Z,9.20
2024-04-11T18:55:51.354Z,12.27
2024-04-11T18:58:18.798Z,8.30
2024-04-11T19:00:46.869Z,9.65
2024-04-11T19:03:18.498Z,10.85
2024-04-11T19:05:53.429Z,6.88
2024-04-11T19:08:29.697Z,6.68
2024-04-11T19:10:57.601Z,6.18
2024-04-11T19:13:28.156Z,6.80
2024-04-11T19:16:07.291Z,6.72
2024-04-11T19:18:50.467Z,4.95
2024-04-11T19:21:37.752Z,4.30
2024-04-11T19:24:08.424Z,6.03
2024-04-11T19:26:41.358Z,3.17
2024-04-11T19:29:09.691Z,4.30
2024-04-11T19:31:48.270Z,3.95
2024-04-11T19:34:26.576Z,6.38
2024-04-11T19:36:59.410Z,5.55
2024-04-11T19:39:33.499Z,7.53
2024-04-11T19:42:03.149Z,3.22
2024-04-11T19:44:32.399Z,2.65
2024-04-11T19:47:00.726Z,6.40
2024-04-11T19:49:29.909Z,5.25
2024-04-11T19:51:59.698Z,5.35
2024-04-11T19:54:27.210Z,3.10
2024-04-11T19:57:06.314Z,5.57
2024-04-11T19:59:34.086Z,4.25
2024-04-11T20:02:11.045Z,3.03
2024-04-11T20:04:38.480Z,5.32
2024-04-11T20:07:07.799Z,3.50
2024-04-11T20:09:40.444Z,3.03
2024-04-11T20:12:18.355Z,2.25
2024-04-11T20:14:52.238Z,2.88
2024-04-11T20:17:31.262Z,3.72
2024-04-11T20:20:02.686Z,3.38
2024-04-11T20:22:37.826Z,4.68
2024-04-11T20:25:10.821Z,5.40
2024-04-11T20:27:43.776Z,5.72
2024-04-11T20:30:21.577Z,4.10
2024-04-11T20:32:51.229Z,3.65
2024-04-11T20:35:30.917Z,4.10
2024-04-11T20:38:02.073Z,6.43
2024-04-11T20:40:37.153Z,6.03
2024-04-11T20:43:05.318Z,6.93
2024-04-11T20:45:36.812Z,6.13
2024-04-11T20:48:17.654Z,5.57
2024-04-11T20:53:50.554Z,7.07
2024-04-11T20:56:36.752Z,6.45
2024-04-11T20:59:22.843Z,6.75
2024-04-11T21:02:08.491Z,10.40
2024-04-11T21:04:54.629Z,7.10
2024-04-11T21:07:40.394Z,7.05
2024-04-11T21:10:26.552Z,10.23
2024-04-11T21:13:12.781Z,8.45
2024-04-11T21:15:58.713Z,8.15
2024-04-11T21:18:44.724Z,8.40
2024-04-11T21:21:30.435Z,9.25
2024-04-11T21:24:20.407Z,10.27
2024-04-11T21:27:06.347Z,10.77
2024-04-11T21:29:52.430Z,8.80
2024-04-11T21:32:38.103Z,10.45
2024-04-11T21:35:09.471Z,8.32
2024-04-11T21:37:37.574Z,10.88
2024-04-11T21:40:14.922Z,11.48
2024-04-11T21:42:42.874Z,8.85
2024-04-11T21:45:13.689Z,14.25
2024-04-11T21:47:41.435Z,10.52
2024-04-11T21:50:13.367Z,10.32
2024-04-11T21:52:40.502Z,12.60
2024-04-11T21:55:12.829Z,11.57
2024-04-11T21:57:44.131Z,11.00
2024-04-11T22:02:55.105Z,12.43
2024-04-11T22:05:25.099Z,10.25
2024-04-11T22:08:00.495Z,11.90
2024-04-11T22:10:30.128Z,11.15
2024-04-11T22:13:00.183Z,12.38
2024-04-11T22:15:38.231Z,10.63
2024-04-11T22:18:25.951Z,9.88
2024-04-11T22:21:07.297Z,11.30
2024-04-11T22:23:35.566Z,13.63
2024-04-11T22:26:07.907Z,12.48
2024-04-11T22:28:36.425Z,11.63
2024-04-11T22:31:08.023Z,12.35
2024-04-11T22:33:39.987Z,12.25
2024-04-11T22:36:29.351Z,13.63
2024-04-11T22:39:02.344Z,12.05
2024-04-11T22:41:31.864Z,13.85
2024-04-11T22:43:59.965Z,12.60
2024-04-11T22:46:37.215Z,12.30
2024-04-11T22:49:23.026Z,12.63
2024-04-11T22:51:56.321Z,12.13
2024-04-11T22:54:24.505Z,14.43
2024-04-11T22:57:00.176Z,15.35
2024-04-11T22:59:31.665Z,14.73
2024-04-11T23:04:50.241Z,14.40
2024-04-11T23:07:37.102Z,14.90
2024-04-11T23:10:21.902Z,12.07
2024-04-11T23:12:53.803Z,14.73
2024-04-11T23:15:25.537Z,13.23
2024-04-11T23:17:57.148Z,15.55
2024-04-11T23:20:29.142Z,14.60
2024-04-11T23:23:00.425Z,12.48
2024-04-11T23:25:29.316Z,12.98
2024-04-11T23:27:57.780Z,12.18
2024-04-11T23:30:39.146Z,13.10
2024-04-11T23:33:22.624Z,13.13
2024-04-11T23:36:08.364Z,14.30
2024-04-11T23:38:42.248Z,12.88
2024-04-11T23:41:11.102Z,12.35
2024-04-11T23:43:49.966Z,10.15
2024-04-11T23:46:29.877Z,15.43
2024-04-11T23:49:09.986Z,14.95
2024-04-11T23:51:48.614Z,11.77
2024-04-11T23:54:22.575Z,9.18
2024-04-11T23:57:03.278Z,13.57
2024-04-11T23:59:40.843Z,14.20
